<?xml version="1.0" encoding="UTF-8" standalone="no" ?>
<gpx xmlns="http://www.topografix.com/GPX/1/1" xmlns:xsi="http://www.w3.org/2001/XMLSchema-instance" xsi:schemaLocation="http://www.topografix.com/GPX/1/1 http://www.topografix.com/GPX/1/1/gpx.xsd" version="1.1" creator="VisuGPX - https://www.visugpx.com">
  <metadata>
    <name>Hohwald</name>
    <desc><![CDATA[Export from GpsPrune]]></desc>
  </metadata>
  <trk>
    <name><![CDATA[GpsPruneTrack]]></name>
    <trkseg>
      <trkpt lat="48.4003" lon="7.30693">
        <ele>648.116</ele>
        <time>2021-01-01T10:35:01Z</time>
      </trkpt>
      <trkpt lat="48.40025" lon="7.3067">
        <ele>648.886</ele>
        <time>2021-01-01T10:36:35Z</time>
      </trkpt>
      <trkpt lat="48.40026" lon="7.30644">
        <ele>650.572</ele>
        <time>2021-01-01T10:36:52Z</time>
      </trkpt>
      <trkpt lat="48.4002" lon="7.30622">
        <ele>651.964</ele>
        <time>2021-01-01T10:37:08Z</time>
      </trkpt>
      <trkpt lat="48.40024" lon="7.30591">
        <ele>654.961</ele>
        <time>2021-01-01T10:37:24Z</time>
      </trkpt>
      <trkpt lat="48.40025" lon="7.30562">
        <ele>658.059</ele>
        <time>2021-01-01T10:37:39Z</time>
      </trkpt>
      <trkpt lat="48.40019" lon="7.30538">
        <ele>659.997</ele>
        <time>2021-01-01T10:37:55Z</time>
      </trkpt>
      <trkpt lat="48.40013" lon="7.30516">
        <ele>661.478</ele>
        <time>2021-01-01T10:38:11Z</time>
      </trkpt>
      <trkpt lat="48.40013" lon="7.30492">
        <ele>663.733</ele>
        <time>2021-01-01T10:38:27Z</time>
      </trkpt>
      <trkpt lat="48.40011" lon="7.30463">
        <ele>666.524</ele>
        <time>2021-01-01T10:38:45Z</time>
      </trkpt>
      <trkpt lat="48.4001" lon="7.30424">
        <ele>669.869</ele>
        <time>2021-01-01T10:39:24Z</time>
      </trkpt>
      <trkpt lat="48.40005" lon="7.30392">
        <ele>672.37</ele>
        <time>2021-01-01T10:39:41Z</time>
      </trkpt>
      <trkpt lat="48.39998" lon="7.30359">
        <ele>675.327</ele>
        <time>2021-01-01T10:40:07Z</time>
      </trkpt>
      <trkpt lat="48.39998" lon="7.30326">
        <ele>678.117</ele>
        <time>2021-01-01T10:40:41Z</time>
      </trkpt>
      <trkpt lat="48.40001" lon="7.30284">
        <ele>682.529</ele>
        <time>2021-01-01T10:41:14Z</time>
      </trkpt>
      <trkpt lat="48.40003" lon="7.30255">
        <ele>686.931</ele>
        <time>2021-01-01T10:41:39Z</time>
      </trkpt>
      <trkpt lat="48.40008" lon="7.30219">
        <ele>692.191</ele>
        <time>2021-01-01T10:42:23Z</time>
      </trkpt>
      <trkpt lat="48.40014" lon="7.30204">
        <ele>696.487</ele>
        <time>2021-01-01T10:42:39Z</time>
      </trkpt>
      <trkpt lat="48.40024" lon="7.30177">
        <ele>704.249</ele>
        <time>2021-01-01T10:44:58Z</time>
      </trkpt>
      <trkpt lat="48.40035" lon="7.30164">
        <ele>708.873</ele>
        <time>2021-01-01T10:45:44Z</time>
      </trkpt>
      <trkpt lat="48.40042" lon="7.30192">
        <ele>703.95</ele>
        <time>2021-01-01T10:47:25Z</time>
      </trkpt>
      <trkpt lat="48.4005" lon="7.3018">
        <ele>708.289</ele>
        <time>2021-01-01T10:47:59Z</time>
      </trkpt>
      <trkpt lat="48.40061" lon="7.30169">
        <ele>712.653</ele>
        <time>2021-01-01T10:48:15Z</time>
      </trkpt>
      <trkpt lat="48.40056" lon="7.30153">
        <ele>715.599</ele>
        <time>2021-01-01T10:48:45Z</time>
      </trkpt>
      <trkpt lat="48.40051" lon="7.3012">
        <ele>721.575</ele>
        <time>2021-01-01T10:49:27Z</time>
      </trkpt>
      <trkpt lat="48.40056" lon="7.30089">
        <ele>726.458</ele>
        <time>2021-01-01T10:50:50Z</time>
      </trkpt>
      <trkpt lat="48.40056" lon="7.30047">
        <ele>732.246</ele>
        <time>2021-01-01T10:51:23Z</time>
      </trkpt>
      <trkpt lat="48.40067" lon="7.30033">
        <ele>734.402</ele>
        <time>2021-01-01T10:51:40Z</time>
      </trkpt>
      <trkpt lat="48.40096" lon="7.3004">
        <ele>735.714</ele>
        <time>2021-01-01T10:52:23Z</time>
      </trkpt>
      <trkpt lat="48.40106" lon="7.30031">
        <ele>737.938</ele>
        <time>2021-01-01T10:52:51Z</time>
      </trkpt>
      <trkpt lat="48.40124" lon="7.30027">
        <ele>740.922</ele>
        <time>2021-01-01T10:53:42Z</time>
      </trkpt>
      <trkpt lat="48.40152" lon="7.30031">
        <ele>743.569</ele>
        <time>2021-01-01T10:54:29Z</time>
      </trkpt>
      <trkpt lat="48.4017" lon="7.30028">
        <ele>745.296</ele>
        <time>2021-01-01T10:55:03Z</time>
      </trkpt>
      <trkpt lat="48.40191" lon="7.30011">
        <ele>750.538</ele>
        <time>2021-01-01T10:55:35Z</time>
      </trkpt>
      <trkpt lat="48.40204" lon="7.30002">
        <ele>753.228</ele>
        <time>2021-01-01T10:55:51Z</time>
      </trkpt>
      <trkpt lat="48.40214" lon="7.29986">
        <ele>756.869</ele>
        <time>2021-01-01T10:56:06Z</time>
      </trkpt>
      <trkpt lat="48.40228" lon="7.29963">
        <ele>762.337</ele>
        <time>2021-01-01T10:56:33Z</time>
      </trkpt>
      <trkpt lat="48.40222" lon="7.29929">
        <ele>768.121</ele>
        <time>2021-01-01T10:57:13Z</time>
      </trkpt>
      <trkpt lat="48.40216" lon="7.299">
        <ele>771.167</ele>
        <time>2021-01-01T10:57:44Z</time>
      </trkpt>
      <trkpt lat="48.40213" lon="7.29853">
        <ele>776.898</ele>
        <time>2021-01-01T10:58:31Z</time>
      </trkpt>
      <trkpt lat="48.40206" lon="7.29822">
        <ele>779.652</ele>
        <time>2021-01-01T10:59:02Z</time>
      </trkpt>
      <trkpt lat="48.40198" lon="7.29795">
        <ele>781.03</ele>
        <time>2021-01-01T10:59:18Z</time>
      </trkpt>
      <trkpt lat="48.40198" lon="7.29772">
        <ele>782.693</ele>
        <time>2021-01-01T10:59:34Z</time>
      </trkpt>
      <trkpt lat="48.40207" lon="7.29754">
        <ele>784.605</ele>
        <time>2021-01-01T10:59:49Z</time>
      </trkpt>
      <trkpt lat="48.40218" lon="7.29736">
        <ele>786.743</ele>
        <time>2021-01-01T11:00:05Z</time>
      </trkpt>
      <trkpt lat="48.40224" lon="7.29708">
        <ele>788.282</ele>
        <time>2021-01-01T11:00:40Z</time>
      </trkpt>
      <trkpt lat="48.40242" lon="7.29691">
        <ele>790.921</ele>
        <time>2021-01-01T11:01:02Z</time>
      </trkpt>
      <trkpt lat="48.40245" lon="7.2967">
        <ele>792.137</ele>
        <time>2021-01-01T11:01:21Z</time>
      </trkpt>
      <trkpt lat="48.40249" lon="7.29634">
        <ele>794.134</ele>
        <time>2021-01-01T11:01:53Z</time>
      </trkpt>
      <trkpt lat="48.40256" lon="7.29609">
        <ele>797.152</ele>
        <time>2021-01-01T11:02:14Z</time>
      </trkpt>
      <trkpt lat="48.40263" lon="7.29576">
        <ele>801.415</ele>
        <time>2021-01-01T11:02:46Z</time>
      </trkpt>
      <trkpt lat="48.40268" lon="7.2956">
        <ele>804.21</ele>
        <time>2021-01-01T11:03:03Z</time>
      </trkpt>
      <trkpt lat="48.40289" lon="7.29551">
        <ele>810.691</ele>
        <time>2021-01-01T11:03:35Z</time>
      </trkpt>
      <trkpt lat="48.40302" lon="7.2956">
        <ele>813.487</ele>
        <time>2021-01-01T11:03:50Z</time>
      </trkpt>
      <trkpt lat="48.40316" lon="7.29569">
        <ele>816.727</ele>
        <time>2021-01-01T11:04:06Z</time>
      </trkpt>
      <trkpt lat="48.40333" lon="7.29576">
        <ele>821.41</ele>
        <time>2021-01-01T11:04:22Z</time>
      </trkpt>
      <trkpt lat="48.40354" lon="7.29575">
        <ele>827.727</ele>
        <time>2021-01-01T11:04:56Z</time>
      </trkpt>
      <trkpt lat="48.4037" lon="7.29566">
        <ele>831.216</ele>
        <time>2021-01-01T11:05:12Z</time>
      </trkpt>
      <trkpt lat="48.4038" lon="7.29557">
        <ele>832.912</ele>
        <time>2021-01-01T11:05:29Z</time>
      </trkpt>
      <trkpt lat="48.40384" lon="7.2954">
        <ele>834.146</ele>
        <time>2021-01-01T11:05:45Z</time>
      </trkpt>
      <trkpt lat="48.40392" lon="7.29523">
        <ele>835.442</ele>
        <time>2021-01-01T11:06:01Z</time>
      </trkpt>
      <trkpt lat="48.40412" lon="7.2951">
        <ele>837.819</ele>
        <time>2021-01-01T11:07:11Z</time>
      </trkpt>
      <trkpt lat="48.40427" lon="7.2949">
        <ele>840.61</ele>
        <time>2021-01-01T11:08:15Z</time>
      </trkpt>
      <trkpt lat="48.40425" lon="7.29466">
        <ele>841.578</ele>
        <time>2021-01-01T11:09:00Z</time>
      </trkpt>
      <trkpt lat="48.40419" lon="7.2945">
        <ele>841.793</ele>
        <time>2021-01-01T11:09:15Z</time>
      </trkpt>
      <trkpt lat="48.40416" lon="7.29425">
        <ele>842.63</ele>
        <time>2021-01-01T11:09:31Z</time>
      </trkpt>
      <trkpt lat="48.40411" lon="7.29404">
        <ele>843.247</ele>
        <time>2021-01-01T11:09:47Z</time>
      </trkpt>
      <trkpt lat="48.4042" lon="7.29377">
        <ele>845.842</ele>
        <time>2021-01-01T11:10:26Z</time>
      </trkpt>
      <trkpt lat="48.40417" lon="7.29353">
        <ele>846.379</ele>
        <time>2021-01-01T11:10:42Z</time>
      </trkpt>
      <trkpt lat="48.40425" lon="7.29332">
        <ele>848.224</ele>
        <time>2021-01-01T11:10:58Z</time>
      </trkpt>
      <trkpt lat="48.4043" lon="7.29315">
        <ele>849.551</ele>
        <time>2021-01-01T11:11:13Z</time>
      </trkpt>
      <trkpt lat="48.40442" lon="7.29279">
        <ele>853.548</ele>
        <time>2021-01-01T11:11:49Z</time>
      </trkpt>
      <trkpt lat="48.40448" lon="7.29261">
        <ele>855.373</ele>
        <time>2021-01-01T11:12:14Z</time>
      </trkpt>
      <trkpt lat="48.40447" lon="7.29228">
        <ele>857.251</ele>
        <time>2021-01-01T11:12:50Z</time>
      </trkpt>
      <trkpt lat="48.40454" lon="7.29195">
        <ele>861.8</ele>
        <time>2021-01-01T11:13:24Z</time>
      </trkpt>
      <trkpt lat="48.40457" lon="7.29162">
        <ele>865.032</ele>
        <time>2021-01-01T11:13:57Z</time>
      </trkpt>
      <trkpt lat="48.40463" lon="7.29135">
        <ele>868.581</ele>
        <time>2021-01-01T11:14:32Z</time>
      </trkpt>
      <trkpt lat="48.40471" lon="7.29106">
        <ele>872.158</ele>
        <time>2021-01-01T11:15:08Z</time>
      </trkpt>
      <trkpt lat="48.40478" lon="7.29089">
        <ele>875.076</ele>
        <time>2021-01-01T11:15:24Z</time>
      </trkpt>
      <trkpt lat="48.40486" lon="7.29063">
        <ele>878.318</ele>
        <time>2021-01-01T11:16:01Z</time>
      </trkpt>
      <trkpt lat="48.40489" lon="7.29044">
        <ele>879.706</ele>
        <time>2021-01-01T11:16:17Z</time>
      </trkpt>
      <trkpt lat="48.40497" lon="7.29018">
        <ele>882.453</ele>
        <time>2021-01-01T11:16:56Z</time>
      </trkpt>
      <trkpt lat="48.40501" lon="7.29001">
        <ele>884.255</ele>
        <time>2021-01-01T11:17:12Z</time>
      </trkpt>
      <trkpt lat="48.40508" lon="7.28988">
        <ele>886.637</ele>
        <time>2021-01-01T11:17:27Z</time>
      </trkpt>
      <trkpt lat="48.40523" lon="7.2897">
        <ele>891.703</ele>
        <time>2021-01-01T11:18:19Z</time>
      </trkpt>
      <trkpt lat="48.40516" lon="7.28952">
        <ele>890.422</ele>
        <time>2021-01-01T11:18:34Z</time>
      </trkpt>
      <trkpt lat="48.40522" lon="7.28925">
        <ele>893.752</ele>
        <time>2021-01-01T11:19:26Z</time>
      </trkpt>
      <trkpt lat="48.4053" lon="7.28899">
        <ele>897.726</ele>
        <time>2021-01-01T11:20:54Z</time>
      </trkpt>
      <trkpt lat="48.40508" lon="7.28612">
        <ele>913.969</ele>
        <time>2021-01-01T11:21:32Z</time>
      </trkpt>
      <trkpt lat="48.40515" lon="7.28588">
        <ele>916.257</ele>
        <time>2021-01-01T11:22:03Z</time>
      </trkpt>
      <trkpt lat="48.40511" lon="7.28564">
        <ele>915.967</ele>
        <time>2021-01-01T11:24:44Z</time>
      </trkpt>
      <trkpt lat="48.40518" lon="7.28543">
        <ele>918.783</ele>
        <time>2021-01-01T11:25:03Z</time>
      </trkpt>
      <trkpt lat="48.4053" lon="7.28521">
        <ele>922.669</ele>
        <time>2021-01-01T11:27:28Z</time>
      </trkpt>
      <trkpt lat="48.40534" lon="7.28491">
        <ele>924.228</ele>
        <time>2021-01-01T11:28:14Z</time>
      </trkpt>
      <trkpt lat="48.40544" lon="7.28468">
        <ele>927.699</ele>
        <time>2021-01-01T11:29:08Z</time>
      </trkpt>
      <trkpt lat="48.40553" lon="7.28456">
        <ele>930.661</ele>
        <time>2021-01-01T11:29:47Z</time>
      </trkpt>
      <trkpt lat="48.40561" lon="7.28442">
        <ele>933.644</ele>
        <time>2021-01-01T11:30:04Z</time>
      </trkpt>
      <trkpt lat="48.40566" lon="7.28418">
        <ele>935.272</ele>
        <time>2021-01-01T11:30:20Z</time>
      </trkpt>
      <trkpt lat="48.40571" lon="7.2839">
        <ele>937.995</ele>
        <time>2021-01-01T11:31:00Z</time>
      </trkpt>
      <trkpt lat="48.40567" lon="7.28363">
        <ele>937.475</ele>
        <time>2021-01-01T11:31:46Z</time>
      </trkpt>
      <trkpt lat="48.40565" lon="7.28328">
        <ele>938.974</ele>
        <time>2021-01-01T11:34:14Z</time>
      </trkpt>
      <trkpt lat="48.40561" lon="7.28305">
        <ele>941.68</ele>
        <time>2021-01-01T11:34:30Z</time>
      </trkpt>
      <trkpt lat="48.40551" lon="7.2829">
        <ele>941.709</ele>
        <time>2021-01-01T11:34:46Z</time>
      </trkpt>
      <trkpt lat="48.40548" lon="7.28262">
        <ele>945.207</ele>
        <time>2021-01-01T11:35:18Z</time>
      </trkpt>
      <trkpt lat="48.40545" lon="7.28234">
        <ele>948.649</ele>
        <time>2021-01-01T11:35:51Z</time>
      </trkpt>
      <trkpt lat="48.40543" lon="7.28206">
        <ele>951.225</ele>
        <time>2021-01-01T11:36:26Z</time>
      </trkpt>
      <trkpt lat="48.40546" lon="7.28175">
        <ele>954.719</ele>
        <time>2021-01-01T11:37:02Z</time>
      </trkpt>
      <trkpt lat="48.40554" lon="7.28151">
        <ele>959.238</ele>
        <time>2021-01-01T11:37:51Z</time>
      </trkpt>
      <trkpt lat="48.40568" lon="7.28134">
        <ele>964.544</ele>
        <time>2021-01-01T11:38:33Z</time>
      </trkpt>
      <trkpt lat="48.40584" lon="7.28118">
        <ele>969.574</ele>
        <time>2021-01-01T11:39:19Z</time>
      </trkpt>
      <trkpt lat="48.406" lon="7.28099">
        <ele>975.44</ele>
        <time>2021-01-01T11:40:01Z</time>
      </trkpt>
      <trkpt lat="48.40615" lon="7.28092">
        <ele>979.794</ele>
        <time>2021-01-01T11:40:35Z</time>
      </trkpt>
      <trkpt lat="48.40628" lon="7.28069">
        <ele>985.413</ele>
        <time>2021-01-01T11:41:06Z</time>
      </trkpt>
      <trkpt lat="48.4065" lon="7.28039">
        <ele>993.971</ele>
        <time>2021-01-01T11:42:23Z</time>
      </trkpt>
      <trkpt lat="48.40665" lon="7.28032">
        <ele>999.202</ele>
        <time>2021-01-01T11:42:53Z</time>
      </trkpt>
      <trkpt lat="48.40669" lon="7.28008">
        <ele>1001.474</ele>
        <time>2021-01-01T11:44:08Z</time>
      </trkpt>
      <trkpt lat="48.40629" lon="7.27981">
        <ele>990.683</ele>
        <time>2021-01-01T11:46:36Z</time>
      </trkpt>
      <trkpt lat="48.40614" lon="7.27976">
        <ele>986.45</ele>
        <time>2021-01-01T11:46:56Z</time>
      </trkpt>
      <trkpt lat="48.406" lon="7.27971">
        <ele>982.366</ele>
        <time>2021-01-01T11:47:11Z</time>
      </trkpt>
      <trkpt lat="48.40584" lon="7.27963">
        <ele>977.508</ele>
        <time>2021-01-01T11:47:30Z</time>
      </trkpt>
      <trkpt lat="48.40522" lon="7.27546">
        <ele>1018.817</ele>
        <time>2021-01-01T11:47:46Z</time>
      </trkpt>
      <trkpt lat="48.405" lon="7.27558">
        <ele>1017.318</ele>
        <time>2021-01-01T11:48:56Z</time>
      </trkpt>
      <trkpt lat="48.40481" lon="7.27564">
        <ele>1016.515</ele>
        <time>2021-01-01T11:50:09Z</time>
      </trkpt>
      <trkpt lat="48.40455" lon="7.27575">
        <ele>1015.408</ele>
        <time>2021-01-01T11:50:49Z</time>
      </trkpt>
      <trkpt lat="48.40442" lon="7.27586">
        <ele>1013.3</ele>
        <time>2021-01-01T11:51:05Z</time>
      </trkpt>
      <trkpt lat="48.40423" lon="7.27581">
        <ele>1014.57</ele>
        <time>2021-01-01T11:51:20Z</time>
      </trkpt>
      <trkpt lat="48.40403" lon="7.27578">
        <ele>1015.663</ele>
        <time>2021-01-01T11:51:35Z</time>
      </trkpt>
      <trkpt lat="48.40386" lon="7.27566">
        <ele>1019.057</ele>
        <time>2021-01-01T11:51:51Z</time>
      </trkpt>
      <trkpt lat="48.40373" lon="7.27556">
        <ele>1021.712</ele>
        <time>2021-01-01T11:52:06Z</time>
      </trkpt>
      <trkpt lat="48.40359" lon="7.27547">
        <ele>1024.623</ele>
        <time>2021-01-01T11:52:22Z</time>
      </trkpt>
      <trkpt lat="48.40344" lon="7.27544">
        <ele>1025.789</ele>
        <time>2021-01-01T11:52:38Z</time>
      </trkpt>
      <trkpt lat="48.40332" lon="7.27535">
        <ele>1028.821</ele>
        <time>2021-01-01T11:52:55Z</time>
      </trkpt>
      <trkpt lat="48.40318" lon="7.27526">
        <ele>1032.199</ele>
        <time>2021-01-01T11:53:10Z</time>
      </trkpt>
      <trkpt lat="48.40304" lon="7.27518">
        <ele>1035.104</ele>
        <time>2021-01-01T11:53:26Z</time>
      </trkpt>
      <trkpt lat="48.4029" lon="7.27514">
        <ele>1036.08</ele>
        <time>2021-01-01T11:53:42Z</time>
      </trkpt>
      <trkpt lat="48.40267" lon="7.27503">
        <ele>1038.648</ele>
        <time>2021-01-01T11:54:17Z</time>
      </trkpt>
      <trkpt lat="48.40254" lon="7.27496">
        <ele>1039.921</ele>
        <time>2021-01-01T11:54:34Z</time>
      </trkpt>
      <trkpt lat="48.40239" lon="7.27492">
        <ele>1039.662</ele>
        <time>2021-01-01T11:54:54Z</time>
      </trkpt>
      <trkpt lat="48.40218" lon="7.27492">
        <ele>1037.876</ele>
        <time>2021-01-01T11:55:09Z</time>
      </trkpt>
      <trkpt lat="48.40198" lon="7.27485">
        <ele>1036.69</ele>
        <time>2021-01-01T11:55:25Z</time>
      </trkpt>
      <trkpt lat="48.40186" lon="7.27477">
        <ele>1036.845</ele>
        <time>2021-01-01T11:55:41Z</time>
      </trkpt>
      <trkpt lat="48.40171" lon="7.27454">
        <ele>1039.928</ele>
        <time>2021-01-01T11:56:15Z</time>
      </trkpt>
      <trkpt lat="48.40161" lon="7.27442">
        <ele>1041.445</ele>
        <time>2021-01-01T11:56:31Z</time>
      </trkpt>
      <trkpt lat="48.40147" lon="7.27411">
        <ele>1045.696</ele>
        <time>2021-01-01T11:57:00Z</time>
      </trkpt>
      <trkpt lat="48.40133" lon="7.27397">
        <ele>1046.337</ele>
        <time>2021-01-01T11:57:16Z</time>
      </trkpt>
      <trkpt lat="48.4012" lon="7.27384">
        <ele>1046.223</ele>
        <time>2021-01-01T11:57:32Z</time>
      </trkpt>
      <trkpt lat="48.40105" lon="7.27356">
        <ele>1047.619</ele>
        <time>2021-01-01T11:57:54Z</time>
      </trkpt>
      <trkpt lat="48.40097" lon="7.2734">
        <ele>1048.596</ele>
        <time>2021-01-01T11:58:09Z</time>
      </trkpt>
      <trkpt lat="48.40086" lon="7.27319">
        <ele>1049.502</ele>
        <time>2021-01-01T11:58:30Z</time>
      </trkpt>
      <trkpt lat="48.40077" lon="7.27307">
        <ele>1049.946</ele>
        <time>2021-01-01T11:58:45Z</time>
      </trkpt>
      <trkpt lat="48.40068" lon="7.27286">
        <ele>1051.62</ele>
        <time>2021-01-01T11:59:01Z</time>
      </trkpt>
      <trkpt lat="48.40056" lon="7.27265">
        <ele>1052.512</ele>
        <time>2021-01-01T11:59:16Z</time>
      </trkpt>
      <trkpt lat="48.40047" lon="7.27243">
        <ele>1053.376</ele>
        <time>2021-01-01T11:59:32Z</time>
      </trkpt>
      <trkpt lat="48.40037" lon="7.27215">
        <ele>1054.608</ele>
        <time>2021-01-01T12:00:04Z</time>
      </trkpt>
      <trkpt lat="48.40026" lon="7.27166">
        <ele>1057.874</ele>
        <time>2021-01-01T12:00:45Z</time>
      </trkpt>
      <trkpt lat="48.40019" lon="7.27142">
        <ele>1058.765</ele>
        <time>2021-01-01T12:01:02Z</time>
      </trkpt>
      <trkpt lat="48.40009" lon="7.27112">
        <ele>1058.938</ele>
        <time>2021-01-01T12:02:29Z</time>
      </trkpt>
      <trkpt lat="48.3999" lon="7.2708">
        <ele>1059.114</ele>
        <time>2021-01-01T12:03:01Z</time>
      </trkpt>
      <trkpt lat="48.39974" lon="7.27061">
        <ele>1058.768</ele>
        <time>2021-01-01T12:03:34Z</time>
      </trkpt>
      <trkpt lat="48.39965" lon="7.2705">
        <ele>1058.959</ele>
        <time>2021-01-01T12:03:49Z</time>
      </trkpt>
      <trkpt lat="48.39955" lon="7.27029">
        <ele>1060.299</ele>
        <time>2021-01-01T12:04:05Z</time>
      </trkpt>
      <trkpt lat="48.39951" lon="7.27012">
        <ele>1061.454</ele>
        <time>2021-01-01T12:04:21Z</time>
      </trkpt>
      <trkpt lat="48.39951" lon="7.26982">
        <ele>1064.276</ele>
        <time>2021-01-01T12:05:04Z</time>
      </trkpt>
      <trkpt lat="48.39948" lon="7.26959">
        <ele>1066.103</ele>
        <time>2021-01-01T12:05:20Z</time>
      </trkpt>
      <trkpt lat="48.39948" lon="7.26928">
        <ele>1068.342</ele>
        <time>2021-01-01T12:06:13Z</time>
      </trkpt>
      <trkpt lat="48.39951" lon="7.26905">
        <ele>1069.978</ele>
        <time>2021-01-01T12:06:28Z</time>
      </trkpt>
      <trkpt lat="48.39952" lon="7.26882">
        <ele>1071.527</ele>
        <time>2021-01-01T12:06:44Z</time>
      </trkpt>
      <trkpt lat="48.39958" lon="7.26854">
        <ele>1073</ele>
        <time>2021-01-01T12:07:21Z</time>
      </trkpt>
      <trkpt lat="48.39963" lon="7.26828">
        <ele>1073.21</ele>
        <time>2021-01-01T12:08:17Z</time>
      </trkpt>
      <trkpt lat="48.39967" lon="7.26806">
        <ele>1073.989</ele>
        <time>2021-01-01T12:08:33Z</time>
      </trkpt>
      <trkpt lat="48.3997" lon="7.26783">
        <ele>1074.059</ele>
        <time>2021-01-01T12:08:49Z</time>
      </trkpt>
      <trkpt lat="48.39947" lon="7.26759">
        <ele>1075.585</ele>
        <time>2021-01-01T12:09:27Z</time>
      </trkpt>
      <trkpt lat="48.39937" lon="7.26746">
        <ele>1076.424</ele>
        <time>2021-01-01T12:09:42Z</time>
      </trkpt>
      <trkpt lat="48.39926" lon="7.26736">
        <ele>1077.161</ele>
        <time>2021-01-01T12:09:58Z</time>
      </trkpt>
      <trkpt lat="48.39916" lon="7.2672">
        <ele>1078.181</ele>
        <time>2021-01-01T12:10:14Z</time>
      </trkpt>
      <trkpt lat="48.39905" lon="7.26708">
        <ele>1079.212</ele>
        <time>2021-01-01T12:10:29Z</time>
      </trkpt>
      <trkpt lat="48.39893" lon="7.267">
        <ele>1079.761</ele>
        <time>2021-01-01T12:10:44Z</time>
      </trkpt>
      <trkpt lat="48.39882" lon="7.26693">
        <ele>1080.058</ele>
        <time>2021-01-01T12:10:59Z</time>
      </trkpt>
      <trkpt lat="48.39871" lon="7.26685">
        <ele>1080.333</ele>
        <time>2021-01-01T12:11:15Z</time>
      </trkpt>
      <trkpt lat="48.39848" lon="7.26677">
        <ele>1081.098</ele>
        <time>2021-01-01T12:11:46Z</time>
      </trkpt>
      <trkpt lat="48.39835" lon="7.26673">
        <ele>1081.702</ele>
        <time>2021-01-01T12:12:01Z</time>
      </trkpt>
      <trkpt lat="48.39809" lon="7.26672">
        <ele>1082.703</ele>
        <time>2021-01-01T12:12:32Z</time>
      </trkpt>
      <trkpt lat="48.39785" lon="7.26672">
        <ele>1083.715</ele>
        <time>2021-01-01T12:13:02Z</time>
      </trkpt>
      <trkpt lat="48.39755" lon="7.26674">
        <ele>1084.807</ele>
        <time>2021-01-01T12:13:32Z</time>
      </trkpt>
      <trkpt lat="48.39734" lon="7.26683">
        <ele>1085.566</ele>
        <time>2021-01-01T12:14:43Z</time>
      </trkpt>
      <trkpt lat="48.39716" lon="7.26695">
        <ele>1086.218</ele>
        <time>2021-01-01T12:14:59Z</time>
      </trkpt>
      <trkpt lat="48.39698" lon="7.26705">
        <ele>1086.862</ele>
        <time>2021-01-01T12:15:14Z</time>
      </trkpt>
      <trkpt lat="48.39672" lon="7.2673">
        <ele>1087.811</ele>
        <time>2021-01-01T12:15:50Z</time>
      </trkpt>
      <trkpt lat="48.39661" lon="7.2674">
        <ele>1088</ele>
        <time>2021-01-01T12:16:06Z</time>
      </trkpt>
      <trkpt lat="48.39644" lon="7.26754">
        <ele>1088.104</ele>
        <time>2021-01-01T12:16:22Z</time>
      </trkpt>
      <trkpt lat="48.39634" lon="7.26762">
        <ele>1088.425</ele>
        <time>2021-01-01T12:16:44Z</time>
      </trkpt>
      <trkpt lat="48.39618" lon="7.26774">
        <ele>1088.863</ele>
        <time>2021-01-01T12:17:03Z</time>
      </trkpt>
      <trkpt lat="48.39603" lon="7.26789">
        <ele>1089.121</ele>
        <time>2021-01-01T12:17:19Z</time>
      </trkpt>
      <trkpt lat="48.39591" lon="7.26799">
        <ele>1089.545</ele>
        <time>2021-01-01T12:17:35Z</time>
      </trkpt>
      <trkpt lat="48.39578" lon="7.26808">
        <ele>1090.106</ele>
        <time>2021-01-01T12:17:50Z</time>
      </trkpt>
      <trkpt lat="48.39556" lon="7.2683">
        <ele>1090.887</ele>
        <time>2021-01-01T12:18:37Z</time>
      </trkpt>
      <trkpt lat="48.39543" lon="7.26845">
        <ele>1091</ele>
        <time>2021-01-01T12:18:55Z</time>
      </trkpt>
      <trkpt lat="48.39533" lon="7.26853">
        <ele>1091</ele>
        <time>2021-01-01T12:19:13Z</time>
      </trkpt>
      <trkpt lat="48.39515" lon="7.26873">
        <ele>1091</ele>
        <time>2021-01-01T12:19:29Z</time>
      </trkpt>
      <trkpt lat="48.39506" lon="7.26874">
        <ele>1091</ele>
        <time>2021-01-01T12:28:48Z</time>
      </trkpt>
      <trkpt lat="48.39491" lon="7.26886">
        <ele>1091</ele>
        <time>2021-01-01T12:29:05Z</time>
      </trkpt>
      <trkpt lat="48.39484" lon="7.26916">
        <ele>1091</ele>
        <time>2021-01-01T12:29:36Z</time>
      </trkpt>
      <trkpt lat="48.39474" lon="7.26948">
        <ele>1091</ele>
        <time>2021-01-01T12:30:20Z</time>
      </trkpt>
      <trkpt lat="48.3946" lon="7.2696">
        <ele>1091</ele>
        <time>2021-01-01T12:30:35Z</time>
      </trkpt>
      <trkpt lat="48.39452" lon="7.26977">
        <ele>1091</ele>
        <time>2021-01-01T12:30:52Z</time>
      </trkpt>
      <trkpt lat="48.3945" lon="7.2702">
        <ele>1091</ele>
        <time>2021-01-01T12:31:25Z</time>
      </trkpt>
      <trkpt lat="48.39449" lon="7.27052">
        <ele>1090.124</ele>
        <time>2021-01-01T12:31:43Z</time>
      </trkpt>
      <trkpt lat="48.39449" lon="7.27079">
        <ele>1090</ele>
        <time>2021-01-01T12:31:58Z</time>
      </trkpt>
      <trkpt lat="48.39452" lon="7.27097">
        <ele>1089.856</ele>
        <time>2021-01-01T12:32:13Z</time>
      </trkpt>
      <trkpt lat="48.39454" lon="7.2712">
        <ele>1089.344</ele>
        <time>2021-01-01T12:32:29Z</time>
      </trkpt>
      <trkpt lat="48.39449" lon="7.27154">
        <ele>1088.265</ele>
        <time>2021-01-01T12:32:44Z</time>
      </trkpt>
      <trkpt lat="48.39448" lon="7.27188">
        <ele>1086.341</ele>
        <time>2021-01-01T12:33:00Z</time>
      </trkpt>
      <trkpt lat="48.39453" lon="7.2721">
        <ele>1084.56</ele>
        <time>2021-01-01T12:33:15Z</time>
      </trkpt>
      <trkpt lat="48.39452" lon="7.27243">
        <ele>1082.766</ele>
        <time>2021-01-01T12:33:31Z</time>
      </trkpt>
      <trkpt lat="48.39454" lon="7.27266">
        <ele>1081.757</ele>
        <time>2021-01-01T12:33:47Z</time>
      </trkpt>
      <trkpt lat="48.39461" lon="7.27285">
        <ele>1080.387</ele>
        <time>2021-01-01T12:34:03Z</time>
      </trkpt>
      <trkpt lat="48.39463" lon="7.27312">
        <ele>1078.591</ele>
        <time>2021-01-01T12:34:19Z</time>
      </trkpt>
      <trkpt lat="48.39465" lon="7.27339">
        <ele>1076.369</ele>
        <time>2021-01-01T12:34:35Z</time>
      </trkpt>
      <trkpt lat="48.39469" lon="7.27365">
        <ele>1074.098</ele>
        <time>2021-01-01T12:34:51Z</time>
      </trkpt>
      <trkpt lat="48.39464" lon="7.27389">
        <ele>1072.883</ele>
        <time>2021-01-01T12:35:07Z</time>
      </trkpt>
      <trkpt lat="48.39461" lon="7.27413">
        <ele>1071.536</ele>
        <time>2021-01-01T12:35:22Z</time>
      </trkpt>
      <trkpt lat="48.39463" lon="7.27434">
        <ele>1069.763</ele>
        <time>2021-01-01T12:35:37Z</time>
      </trkpt>
      <trkpt lat="48.39452" lon="7.27467">
        <ele>1067.986</ele>
        <time>2021-01-01T12:35:53Z</time>
      </trkpt>
      <trkpt lat="48.39442" lon="7.27485">
        <ele>1066.696</ele>
        <time>2021-01-01T12:36:09Z</time>
      </trkpt>
      <trkpt lat="48.39419" lon="7.27504">
        <ele>1065.667</ele>
        <time>2021-01-01T12:36:58Z</time>
      </trkpt>
      <trkpt lat="48.39396" lon="7.275">
        <ele>1063.069</ele>
        <time>2021-01-01T12:37:47Z</time>
      </trkpt>
      <trkpt lat="48.3938" lon="7.275">
        <ele>1060.645</ele>
        <time>2021-01-01T12:38:03Z</time>
      </trkpt>
      <trkpt lat="48.39366" lon="7.27494">
        <ele>1059.577</ele>
        <time>2021-01-01T12:38:18Z</time>
      </trkpt>
      <trkpt lat="48.39349" lon="7.27489">
        <ele>1057.388</ele>
        <time>2021-01-01T12:38:34Z</time>
      </trkpt>
      <trkpt lat="48.39332" lon="7.27478">
        <ele>1055.897</ele>
        <time>2021-01-01T12:38:49Z</time>
      </trkpt>
      <trkpt lat="48.39314" lon="7.27468">
        <ele>1054.12</ele>
        <time>2021-01-01T12:39:04Z</time>
      </trkpt>
      <trkpt lat="48.39297" lon="7.27463">
        <ele>1051.878</ele>
        <time>2021-01-01T12:39:20Z</time>
      </trkpt>
      <trkpt lat="48.39283" lon="7.27458">
        <ele>1050.042</ele>
        <time>2021-01-01T12:39:35Z</time>
      </trkpt>
      <trkpt lat="48.39265" lon="7.27452">
        <ele>1048.128</ele>
        <time>2021-01-01T12:39:50Z</time>
      </trkpt>
      <trkpt lat="48.39248" lon="7.27443">
        <ele>1046.72</ele>
        <time>2021-01-01T12:40:06Z</time>
      </trkpt>
      <trkpt lat="48.39221" lon="7.27432">
        <ele>1044.029</ele>
        <time>2021-01-01T12:40:47Z</time>
      </trkpt>
      <trkpt lat="48.39208" lon="7.27421">
        <ele>1044.175</ele>
        <time>2021-01-01T12:41:05Z</time>
      </trkpt>
      <trkpt lat="48.39192" lon="7.2742">
        <ele>1041.912</ele>
        <time>2021-01-01T12:41:19Z</time>
      </trkpt>
      <trkpt lat="48.39173" lon="7.27419">
        <ele>1039.166</ele>
        <time>2021-01-01T12:41:41Z</time>
      </trkpt>
      <trkpt lat="48.39156" lon="7.2741">
        <ele>1037.484</ele>
        <time>2021-01-01T12:41:53Z</time>
      </trkpt>
      <trkpt lat="48.39143" lon="7.27403">
        <ele>1036.059</ele>
        <time>2021-01-01T12:42:03Z</time>
      </trkpt>
      <trkpt lat="48.3913" lon="7.27394">
        <ele>1034.258</ele>
        <time>2021-01-01T12:42:20Z</time>
      </trkpt>
      <trkpt lat="48.39139" lon="7.27409">
        <ele>1033.79</ele>
        <time>2021-01-01T12:42:38Z</time>
      </trkpt>
      <trkpt lat="48.39151" lon="7.27427">
        <ele>1032.289</ele>
        <time>2021-01-01T12:42:56Z</time>
      </trkpt>
      <trkpt lat="48.39162" lon="7.27443">
        <ele>1031.317</ele>
        <time>2021-01-01T12:43:08Z</time>
      </trkpt>
      <trkpt lat="48.39173" lon="7.27457">
        <ele>1030.546</ele>
        <time>2021-01-01T12:43:19Z</time>
      </trkpt>
      <trkpt lat="48.39184" lon="7.27472">
        <ele>1029.775</ele>
        <time>2021-01-01T12:43:30Z</time>
      </trkpt>
      <trkpt lat="48.39192" lon="7.27489">
        <ele>1028.453</ele>
        <time>2021-01-01T12:43:41Z</time>
      </trkpt>
      <trkpt lat="48.39201" lon="7.27506">
        <ele>1027.476</ele>
        <time>2021-01-01T12:43:53Z</time>
      </trkpt>
      <trkpt lat="48.39207" lon="7.27524">
        <ele>1025.391</ele>
        <time>2021-01-01T12:44:04Z</time>
      </trkpt>
      <trkpt lat="48.39215" lon="7.27538">
        <ele>1024.913</ele>
        <time>2021-01-01T12:44:15Z</time>
      </trkpt>
      <trkpt lat="48.39222" lon="7.27563">
        <ele>1021.475</ele>
        <time>2021-01-01T12:44:33Z</time>
      </trkpt>
      <trkpt lat="48.39228" lon="7.27588">
        <ele>1018.295</ele>
        <time>2021-01-01T12:44:50Z</time>
      </trkpt>
      <trkpt lat="48.39239" lon="7.27609">
        <ele>1016.583</ele>
        <time>2021-01-01T12:45:06Z</time>
      </trkpt>
      <trkpt lat="48.39243" lon="7.27626">
        <ele>1014.639</ele>
        <time>2021-01-01T12:45:17Z</time>
      </trkpt>
      <trkpt lat="48.39254" lon="7.27644">
        <ele>1013.953</ele>
        <time>2021-01-01T12:45:33Z</time>
      </trkpt>
      <trkpt lat="48.3926" lon="7.27664">
        <ele>1012.102</ele>
        <time>2021-01-01T12:45:50Z</time>
      </trkpt>
      <trkpt lat="48.39268" lon="7.27682">
        <ele>1010.939</ele>
        <time>2021-01-01T12:46:01Z</time>
      </trkpt>
      <trkpt lat="48.39274" lon="7.27697">
        <ele>1009.766</ele>
        <time>2021-01-01T12:46:13Z</time>
      </trkpt>
      <trkpt lat="48.39281" lon="7.27711">
        <ele>1008.72</ele>
        <time>2021-01-01T12:46:24Z</time>
      </trkpt>
      <trkpt lat="48.3929" lon="7.27732">
        <ele>1007.725</ele>
        <time>2021-01-01T12:46:41Z</time>
      </trkpt>
      <trkpt lat="48.39297" lon="7.27753">
        <ele>1006.296</ele>
        <time>2021-01-01T12:46:58Z</time>
      </trkpt>
      <trkpt lat="48.39306" lon="7.27774">
        <ele>1004.672</ele>
        <time>2021-01-01T12:47:16Z</time>
      </trkpt>
      <trkpt lat="48.39312" lon="7.27789">
        <ele>1003.797</ele>
        <time>2021-01-01T12:47:27Z</time>
      </trkpt>
      <trkpt lat="48.39317" lon="7.27809">
        <ele>1001.651</ele>
        <time>2021-01-01T12:47:39Z</time>
      </trkpt>
      <trkpt lat="48.39328" lon="7.27825">
        <ele>1000.748</ele>
        <time>2021-01-01T12:47:56Z</time>
      </trkpt>
      <trkpt lat="48.39334" lon="7.27842">
        <ele>998.877</ele>
        <time>2021-01-01T12:48:06Z</time>
      </trkpt>
      <trkpt lat="48.39342" lon="7.27862">
        <ele>997.458</ele>
        <time>2021-01-01T12:48:23Z</time>
      </trkpt>
      <trkpt lat="48.39349" lon="7.27875">
        <ele>996.813</ele>
        <time>2021-01-01T12:48:34Z</time>
      </trkpt>
      <trkpt lat="48.39356" lon="7.27889">
        <ele>996.05</ele>
        <time>2021-01-01T12:48:45Z</time>
      </trkpt>
      <trkpt lat="48.39367" lon="7.27906">
        <ele>995.861</ele>
        <time>2021-01-01T12:49:19Z</time>
      </trkpt>
      <trkpt lat="48.39376" lon="7.27917">
        <ele>996.06</ele>
        <time>2021-01-01T12:49:30Z</time>
      </trkpt>
      <trkpt lat="48.39378" lon="7.2795">
        <ele>993.135</ele>
        <time>2021-01-01T12:49:48Z</time>
      </trkpt>
      <trkpt lat="48.39383" lon="7.27973">
        <ele>991.91</ele>
        <time>2021-01-01T12:50:06Z</time>
      </trkpt>
      <trkpt lat="48.39383" lon="7.28002">
        <ele>989.737</ele>
        <time>2021-01-01T12:50:23Z</time>
      </trkpt>
      <trkpt lat="48.39392" lon="7.28031">
        <ele>988.228</ele>
        <time>2021-01-01T12:50:43Z</time>
      </trkpt>
      <trkpt lat="48.39398" lon="7.2806">
        <ele>986.608</ele>
        <time>2021-01-01T12:51:01Z</time>
      </trkpt>
      <trkpt lat="48.39404" lon="7.28077">
        <ele>986.115</ele>
        <time>2021-01-01T12:51:12Z</time>
      </trkpt>
      <trkpt lat="48.39414" lon="7.28091">
        <ele>986.136</ele>
        <time>2021-01-01T12:51:23Z</time>
      </trkpt>
      <trkpt lat="48.39409" lon="7.28111">
        <ele>984.207</ele>
        <time>2021-01-01T12:51:50Z</time>
      </trkpt>
      <trkpt lat="48.39392" lon="7.28104">
        <ele>982.919</ele>
        <time>2021-01-01T12:52:12Z</time>
      </trkpt>
      <trkpt lat="48.3938" lon="7.28089">
        <ele>982.366</ele>
        <time>2021-01-01T12:52:28Z</time>
      </trkpt>
      <trkpt lat="48.39373" lon="7.28074">
        <ele>982.352</ele>
        <time>2021-01-01T12:52:39Z</time>
      </trkpt>
      <trkpt lat="48.39362" lon="7.28054">
        <ele>982.174</ele>
        <time>2021-01-01T12:52:56Z</time>
      </trkpt>
      <trkpt lat="48.39355" lon="7.28041">
        <ele>981.974</ele>
        <time>2021-01-01T12:53:07Z</time>
      </trkpt>
      <trkpt lat="48.39346" lon="7.28018">
        <ele>982.053</ele>
        <time>2021-01-01T12:53:24Z</time>
      </trkpt>
      <trkpt lat="48.39342" lon="7.28">
        <ele>982.515</ele>
        <time>2021-01-01T12:53:35Z</time>
      </trkpt>
      <trkpt lat="48.39335" lon="7.27981">
        <ele>982.633</ele>
        <time>2021-01-01T12:53:53Z</time>
      </trkpt>
      <trkpt lat="48.39321" lon="7.27957">
        <ele>982.403</ele>
        <time>2021-01-01T12:54:11Z</time>
      </trkpt>
      <trkpt lat="48.39313" lon="7.27945">
        <ele>982.023</ele>
        <time>2021-01-01T12:54:17Z</time>
      </trkpt>
      <trkpt lat="48.39299" lon="7.27932">
        <ele>981.415</ele>
        <time>2021-01-01T12:54:29Z</time>
      </trkpt>
      <trkpt lat="48.39283" lon="7.27926">
        <ele>979.708</ele>
        <time>2021-01-01T12:54:46Z</time>
      </trkpt>
      <trkpt lat="48.3927" lon="7.2792">
        <ele>978.543</ele>
        <time>2021-01-01T12:55:03Z</time>
      </trkpt>
      <trkpt lat="48.39258" lon="7.27907">
        <ele>978.355</ele>
        <time>2021-01-01T12:55:15Z</time>
      </trkpt>
      <trkpt lat="48.39244" lon="7.27896">
        <ele>977.27</ele>
        <time>2021-01-01T12:55:27Z</time>
      </trkpt>
      <trkpt lat="48.39225" lon="7.27891">
        <ele>975.235</ele>
        <time>2021-01-01T12:55:43Z</time>
      </trkpt>
      <trkpt lat="48.39211" lon="7.27885">
        <ele>973.823</ele>
        <time>2021-01-01T12:55:55Z</time>
      </trkpt>
      <trkpt lat="48.39198" lon="7.27879">
        <ele>972.597</ele>
        <time>2021-01-01T12:56:06Z</time>
      </trkpt>
      <trkpt lat="48.39182" lon="7.27872">
        <ele>970.541</ele>
        <time>2021-01-01T12:56:32Z</time>
      </trkpt>
      <trkpt lat="48.3917" lon="7.27862">
        <ele>969.4</ele>
        <time>2021-01-01T12:56:44Z</time>
      </trkpt>
      <trkpt lat="48.39157" lon="7.27851">
        <ele>968.658</ele>
        <time>2021-01-01T12:57:01Z</time>
      </trkpt>
      <trkpt lat="48.39145" lon="7.27842">
        <ele>967.931</ele>
        <time>2021-01-01T12:57:14Z</time>
      </trkpt>
      <trkpt lat="48.39134" lon="7.2783">
        <ele>967.187</ele>
        <time>2021-01-01T12:57:25Z</time>
      </trkpt>
      <trkpt lat="48.39123" lon="7.27818">
        <ele>965.675</ele>
        <time>2021-01-01T12:57:37Z</time>
      </trkpt>
      <trkpt lat="48.39108" lon="7.27805">
        <ele>963.468</ele>
        <time>2021-01-01T12:57:53Z</time>
      </trkpt>
      <trkpt lat="48.39096" lon="7.27797">
        <ele>962.089</ele>
        <time>2021-01-01T12:58:05Z</time>
      </trkpt>
      <trkpt lat="48.39083" lon="7.27793">
        <ele>959.823</ele>
        <time>2021-01-01T12:58:47Z</time>
      </trkpt>
      <trkpt lat="48.39068" lon="7.27789">
        <ele>956.873</ele>
        <time>2021-01-01T12:59:03Z</time>
      </trkpt>
      <trkpt lat="48.39052" lon="7.27793">
        <ele>953.19</ele>
        <time>2021-01-01T12:59:19Z</time>
      </trkpt>
      <trkpt lat="48.39029" lon="7.27793">
        <ele>949.192</ele>
        <time>2021-01-01T12:59:35Z</time>
      </trkpt>
      <trkpt lat="48.39016" lon="7.27785">
        <ele>947.41</ele>
        <time>2021-01-01T13:00:18Z</time>
      </trkpt>
      <trkpt lat="48.39002" lon="7.27773">
        <ele>945.577</ele>
        <time>2021-01-01T13:00:30Z</time>
      </trkpt>
      <trkpt lat="48.38992" lon="7.27757">
        <ele>944.286</ele>
        <time>2021-01-01T13:00:41Z</time>
      </trkpt>
      <trkpt lat="48.38983" lon="7.27745">
        <ele>943.294</ele>
        <time>2021-01-01T13:00:52Z</time>
      </trkpt>
      <trkpt lat="48.38975" lon="7.27734">
        <ele>942.7</ele>
        <time>2021-01-01T13:01:04Z</time>
      </trkpt>
      <trkpt lat="48.38964" lon="7.2772">
        <ele>942.111</ele>
        <time>2021-01-01T13:04:03Z</time>
      </trkpt>
      <trkpt lat="48.38954" lon="7.27702">
        <ele>942.06</ele>
        <time>2021-01-01T13:04:15Z</time>
      </trkpt>
      <trkpt lat="48.38944" lon="7.27688">
        <ele>942.055</ele>
        <time>2021-01-01T13:04:26Z</time>
      </trkpt>
      <trkpt lat="48.38928" lon="7.27694">
        <ele>943.515</ele>
        <time>2021-01-01T13:04:48Z</time>
      </trkpt>
      <trkpt lat="48.38921" lon="7.27707">
        <ele>942.641</ele>
        <time>2021-01-01T13:05:00Z</time>
      </trkpt>
      <trkpt lat="48.38914" lon="7.27722">
        <ele>941.323</ele>
        <time>2021-01-01T13:05:12Z</time>
      </trkpt>
      <trkpt lat="48.38903" lon="7.27739">
        <ele>940.858</ele>
        <time>2021-01-01T13:05:28Z</time>
      </trkpt>
      <trkpt lat="48.38892" lon="7.27758">
        <ele>939.527</ele>
        <time>2021-01-01T13:05:39Z</time>
      </trkpt>
      <trkpt lat="48.38886" lon="7.27773">
        <ele>937.993</ele>
        <time>2021-01-01T13:05:50Z</time>
      </trkpt>
      <trkpt lat="48.3888" lon="7.2779">
        <ele>936.043</ele>
        <time>2021-01-01T13:06:02Z</time>
      </trkpt>
      <trkpt lat="48.38874" lon="7.27807">
        <ele>933.92</ele>
        <time>2021-01-01T13:06:13Z</time>
      </trkpt>
      <trkpt lat="48.38867" lon="7.27825">
        <ele>932.643</ele>
        <time>2021-01-01T13:06:24Z</time>
      </trkpt>
      <trkpt lat="48.38857" lon="7.27845">
        <ele>931.027</ele>
        <time>2021-01-01T13:06:41Z</time>
      </trkpt>
      <trkpt lat="48.38845" lon="7.27851">
        <ele>930.863</ele>
        <time>2021-01-01T13:06:52Z</time>
      </trkpt>
      <trkpt lat="48.38827" lon="7.27848">
        <ele>932.445</ele>
        <time>2021-01-01T13:07:08Z</time>
      </trkpt>
      <trkpt lat="48.38814" lon="7.27851">
        <ele>933.063</ele>
        <time>2021-01-01T13:07:20Z</time>
      </trkpt>
      <trkpt lat="48.38806" lon="7.27869">
        <ele>930.84</ele>
        <time>2021-01-01T13:07:37Z</time>
      </trkpt>
      <trkpt lat="48.38783" lon="7.27863">
        <ele>930.043</ele>
        <time>2021-01-01T13:07:55Z</time>
      </trkpt>
      <trkpt lat="48.38768" lon="7.27853">
        <ele>930.435</ele>
        <time>2021-01-01T13:08:07Z</time>
      </trkpt>
      <trkpt lat="48.38752" lon="7.27843">
        <ele>930.449</ele>
        <time>2021-01-01T13:08:23Z</time>
      </trkpt>
      <trkpt lat="48.38733" lon="7.2784">
        <ele>929.952</ele>
        <time>2021-01-01T13:08:40Z</time>
      </trkpt>
      <trkpt lat="48.38716" lon="7.27848">
        <ele>927.972</ele>
        <time>2021-01-01T13:08:57Z</time>
      </trkpt>
      <trkpt lat="48.38699" lon="7.27859">
        <ele>926.24</ele>
        <time>2021-01-01T13:09:13Z</time>
      </trkpt>
      <trkpt lat="48.38682" lon="7.27867">
        <ele>925.738</ele>
        <time>2021-01-01T13:09:29Z</time>
      </trkpt>
      <trkpt lat="48.3867" lon="7.27872">
        <ele>925.665</ele>
        <time>2021-01-01T13:09:41Z</time>
      </trkpt>
      <trkpt lat="48.38656" lon="7.27881">
        <ele>925.236</ele>
        <time>2021-01-01T13:09:57Z</time>
      </trkpt>
      <trkpt lat="48.38641" lon="7.27889">
        <ele>924.905</ele>
        <time>2021-01-01T13:10:13Z</time>
      </trkpt>
      <trkpt lat="48.38627" lon="7.27899">
        <ele>925.513</ele>
        <time>2021-01-01T13:10:30Z</time>
      </trkpt>
      <trkpt lat="48.38628" lon="7.27922">
        <ele>924.517</ele>
        <time>2021-01-01T13:11:08Z</time>
      </trkpt>
      <trkpt lat="48.38636" lon="7.27938">
        <ele>922.793</ele>
        <time>2021-01-01T13:11:19Z</time>
      </trkpt>
      <trkpt lat="48.38643" lon="7.27951">
        <ele>921.459</ele>
        <time>2021-01-01T13:11:30Z</time>
      </trkpt>
      <trkpt lat="48.38631" lon="7.27966">
        <ele>922.046</ele>
        <time>2021-01-01T13:11:58Z</time>
      </trkpt>
      <trkpt lat="48.38621" lon="7.27978">
        <ele>922.928</ele>
        <time>2021-01-01T13:12:09Z</time>
      </trkpt>
      <trkpt lat="48.38609" lon="7.27994">
        <ele>924.254</ele>
        <time>2021-01-01T13:12:32Z</time>
      </trkpt>
      <trkpt lat="48.38595" lon="7.28007">
        <ele>925.827</ele>
        <time>2021-01-01T13:12:49Z</time>
      </trkpt>
      <trkpt lat="48.38585" lon="7.28019">
        <ele>927.421</ele>
        <time>2021-01-01T13:13:00Z</time>
      </trkpt>
      <trkpt lat="48.38574" lon="7.28026">
        <ele>928.954</ele>
        <time>2021-01-01T13:13:11Z</time>
      </trkpt>
      <trkpt lat="48.38557" lon="7.28027">
        <ele>930.85</ele>
        <time>2021-01-01T13:13:29Z</time>
      </trkpt>
      <trkpt lat="48.38543" lon="7.28018">
        <ele>932.408</ele>
        <time>2021-01-01T13:13:41Z</time>
      </trkpt>
      <trkpt lat="48.38533" lon="7.28008">
        <ele>933.581</ele>
        <time>2021-01-01T13:13:52Z</time>
      </trkpt>
      <trkpt lat="48.38521" lon="7.28001">
        <ele>934.284</ele>
        <time>2021-01-01T13:14:03Z</time>
      </trkpt>
      <trkpt lat="48.38505" lon="7.27997">
        <ele>934.703</ele>
        <time>2021-01-01T13:14:20Z</time>
      </trkpt>
      <trkpt lat="48.38489" lon="7.27992">
        <ele>935.36</ele>
        <time>2021-01-01T13:14:36Z</time>
      </trkpt>
      <trkpt lat="48.38474" lon="7.27985">
        <ele>935.793</ele>
        <time>2021-01-01T13:14:53Z</time>
      </trkpt>
      <trkpt lat="48.38456" lon="7.27978">
        <ele>934.926</ele>
        <time>2021-01-01T13:15:09Z</time>
      </trkpt>
      <trkpt lat="48.38441" lon="7.27975">
        <ele>934.137</ele>
        <time>2021-01-01T13:15:25Z</time>
      </trkpt>
      <trkpt lat="48.38427" lon="7.27971">
        <ele>933.277</ele>
        <time>2021-01-01T13:15:36Z</time>
      </trkpt>
      <trkpt lat="48.38406" lon="7.27969">
        <ele>931.874</ele>
        <time>2021-01-01T13:15:59Z</time>
      </trkpt>
      <trkpt lat="48.38391" lon="7.2797">
        <ele>930.787</ele>
        <time>2021-01-01T13:16:22Z</time>
      </trkpt>
      <trkpt lat="48.38378" lon="7.27978">
        <ele>929.934</ele>
        <time>2021-01-01T13:16:39Z</time>
      </trkpt>
      <trkpt lat="48.38369" lon="7.27999">
        <ele>931.935</ele>
        <time>2021-01-01T13:16:56Z</time>
      </trkpt>
      <trkpt lat="48.38358" lon="7.28017">
        <ele>933.686</ele>
        <time>2021-01-01T13:17:06Z</time>
      </trkpt>
      <trkpt lat="48.38344" lon="7.28034">
        <ele>934.459</ele>
        <time>2021-01-01T13:17:18Z</time>
      </trkpt>
      <trkpt lat="48.38336" lon="7.28056">
        <ele>936.332</ele>
        <time>2021-01-01T13:17:30Z</time>
      </trkpt>
      <trkpt lat="48.38329" lon="7.28069">
        <ele>935.491</ele>
        <time>2021-01-01T13:17:41Z</time>
      </trkpt>
      <trkpt lat="48.38321" lon="7.28093">
        <ele>933.81</ele>
        <time>2021-01-01T13:17:59Z</time>
      </trkpt>
      <trkpt lat="48.38319" lon="7.2812">
        <ele>933.082</ele>
        <time>2021-01-01T13:18:17Z</time>
      </trkpt>
      <trkpt lat="48.38318" lon="7.28145">
        <ele>932.927</ele>
        <time>2021-01-01T13:18:28Z</time>
      </trkpt>
      <trkpt lat="48.38316" lon="7.2817">
        <ele>931.319</ele>
        <time>2021-01-01T13:18:39Z</time>
      </trkpt>
      <trkpt lat="48.38313" lon="7.28194">
        <ele>928.1</ele>
        <time>2021-01-01T13:18:50Z</time>
      </trkpt>
      <trkpt lat="48.38315" lon="7.28225">
        <ele>926.472</ele>
        <time>2021-01-01T13:19:07Z</time>
      </trkpt>
      <trkpt lat="48.38314" lon="7.28252">
        <ele>923.97</ele>
        <time>2021-01-01T13:19:23Z</time>
      </trkpt>
      <trkpt lat="48.38316" lon="7.28273">
        <ele>922.924</ele>
        <time>2021-01-01T13:20:55Z</time>
      </trkpt>
      <trkpt lat="48.38316" lon="7.28303">
        <ele>920.481</ele>
        <time>2021-01-01T13:22:40Z</time>
      </trkpt>
      <trkpt lat="48.38314" lon="7.28329">
        <ele>917.329</ele>
        <time>2021-01-01T13:22:57Z</time>
      </trkpt>
      <trkpt lat="48.38314" lon="7.28357">
        <ele>913.862</ele>
        <time>2021-01-01T13:23:21Z</time>
      </trkpt>
      <trkpt lat="48.38318" lon="7.28375">
        <ele>912.44</ele>
        <time>2021-01-01T13:23:33Z</time>
      </trkpt>
      <trkpt lat="48.38325" lon="7.28402">
        <ele>910.332</ele>
        <time>2021-01-01T13:23:50Z</time>
      </trkpt>
      <trkpt lat="48.38335" lon="7.2842">
        <ele>911.276</ele>
        <time>2021-01-01T13:24:08Z</time>
      </trkpt>
      <trkpt lat="48.38343" lon="7.28435">
        <ele>911.833</ele>
        <time>2021-01-01T13:24:20Z</time>
      </trkpt>
      <trkpt lat="48.38348" lon="7.28458">
        <ele>908.778</ele>
        <time>2021-01-01T13:24:37Z</time>
      </trkpt>
      <trkpt lat="48.38353" lon="7.28478">
        <ele>904.181</ele>
        <time>2021-01-01T13:25:06Z</time>
      </trkpt>
      <trkpt lat="48.38362" lon="7.28493">
        <ele>902.308</ele>
        <time>2021-01-01T13:26:57Z</time>
      </trkpt>
      <trkpt lat="48.38375" lon="7.28502">
        <ele>902.679</ele>
        <time>2021-01-01T13:27:31Z</time>
      </trkpt>
      <trkpt lat="48.3838" lon="7.28518">
        <ele>897.273</ele>
        <time>2021-01-01T13:28:28Z</time>
      </trkpt>
      <trkpt lat="48.38395" lon="7.2852">
        <ele>900.874</ele>
        <time>2021-01-01T13:29:29Z</time>
      </trkpt>
      <trkpt lat="48.38407" lon="7.2853">
        <ele>899.388</ele>
        <time>2021-01-01T13:29:46Z</time>
      </trkpt>
      <trkpt lat="48.38418" lon="7.28544">
        <ele>896.295</ele>
        <time>2021-01-01T13:30:02Z</time>
      </trkpt>
      <trkpt lat="48.38433" lon="7.28554">
        <ele>896.582</ele>
        <time>2021-01-01T13:30:24Z</time>
      </trkpt>
      <trkpt lat="48.38442" lon="7.28569">
        <ele>893.066</ele>
        <time>2021-01-01T13:30:41Z</time>
      </trkpt>
      <trkpt lat="48.38448" lon="7.28586">
        <ele>888.038</ele>
        <time>2021-01-01T13:30:57Z</time>
      </trkpt>
      <trkpt lat="48.38458" lon="7.28601">
        <ele>885.682</ele>
        <time>2021-01-01T13:31:15Z</time>
      </trkpt>
      <trkpt lat="48.38467" lon="7.28617">
        <ele>882.601</ele>
        <time>2021-01-01T13:31:27Z</time>
      </trkpt>
      <trkpt lat="48.38479" lon="7.28634">
        <ele>879.734</ele>
        <time>2021-01-01T13:31:43Z</time>
      </trkpt>
      <trkpt lat="48.38493" lon="7.28643">
        <ele>880.213</ele>
        <time>2021-01-01T13:32:05Z</time>
      </trkpt>
      <trkpt lat="48.38504" lon="7.28658">
        <ele>877.739</ele>
        <time>2021-01-01T13:32:22Z</time>
      </trkpt>
      <trkpt lat="48.38512" lon="7.28671">
        <ele>875.508</ele>
        <time>2021-01-01T13:32:38Z</time>
      </trkpt>
      <trkpt lat="48.38525" lon="7.28685">
        <ele>874.162</ele>
        <time>2021-01-01T13:33:01Z</time>
      </trkpt>
      <trkpt lat="48.38529" lon="7.28702">
        <ele>870.658</ele>
        <time>2021-01-01T13:33:23Z</time>
      </trkpt>
      <trkpt lat="48.38537" lon="7.28717">
        <ele>869.146</ele>
        <time>2021-01-01T13:34:04Z</time>
      </trkpt>
      <trkpt lat="48.38547" lon="7.28732">
        <ele>868.062</ele>
        <time>2021-01-01T13:34:20Z</time>
      </trkpt>
      <trkpt lat="48.38552" lon="7.28749">
        <ele>865.336</ele>
        <time>2021-01-01T13:34:31Z</time>
      </trkpt>
      <trkpt lat="48.38559" lon="7.28764">
        <ele>863.527</ele>
        <time>2021-01-01T13:34:43Z</time>
      </trkpt>
      <trkpt lat="48.38562" lon="7.28787">
        <ele>860.107</ele>
        <time>2021-01-01T13:35:00Z</time>
      </trkpt>
      <trkpt lat="48.38569" lon="7.288">
        <ele>859.235</ele>
        <time>2021-01-01T13:35:11Z</time>
      </trkpt>
      <trkpt lat="48.38578" lon="7.28823">
        <ele>857.412</ele>
        <time>2021-01-01T13:35:22Z</time>
      </trkpt>
      <trkpt lat="48.38582" lon="7.28848">
        <ele>854.662</ele>
        <time>2021-01-01T13:35:33Z</time>
      </trkpt>
      <trkpt lat="48.38584" lon="7.28878">
        <ele>850.665</ele>
        <time>2021-01-01T13:35:45Z</time>
      </trkpt>
      <trkpt lat="48.38588" lon="7.28896">
        <ele>848.781</ele>
        <time>2021-01-01T13:35:57Z</time>
      </trkpt>
      <trkpt lat="48.38598" lon="7.28915">
        <ele>847.35</ele>
        <time>2021-01-01T13:36:14Z</time>
      </trkpt>
      <trkpt lat="48.38601" lon="7.28935">
        <ele>844.286</ele>
        <time>2021-01-01T13:37:36Z</time>
      </trkpt>
      <trkpt lat="48.38611" lon="7.28949">
        <ele>844.054</ele>
        <time>2021-01-01T13:37:59Z</time>
      </trkpt>
      <trkpt lat="48.38618" lon="7.28962">
        <ele>843.001</ele>
        <time>2021-01-01T13:38:14Z</time>
      </trkpt>
      <trkpt lat="48.38631" lon="7.28976">
        <ele>842.653</ele>
        <time>2021-01-01T13:38:32Z</time>
      </trkpt>
      <trkpt lat="48.38647" lon="7.28991">
        <ele>841.896</ele>
        <time>2021-01-01T13:38:54Z</time>
      </trkpt>
      <trkpt lat="48.38658" lon="7.29003">
        <ele>840.205</ele>
        <time>2021-01-01T13:39:06Z</time>
      </trkpt>
      <trkpt lat="48.38666" lon="7.29015">
        <ele>838.206</ele>
        <time>2021-01-01T13:39:16Z</time>
      </trkpt>
      <trkpt lat="48.38679" lon="7.29023">
        <ele>837.532</ele>
        <time>2021-01-01T13:39:33Z</time>
      </trkpt>
      <trkpt lat="48.38695" lon="7.2903">
        <ele>837.307</ele>
        <time>2021-01-01T13:39:49Z</time>
      </trkpt>
      <trkpt lat="48.38715" lon="7.29036">
        <ele>835.893</ele>
        <time>2021-01-01T13:40:07Z</time>
      </trkpt>
      <trkpt lat="48.38725" lon="7.29053">
        <ele>831.612</ele>
        <time>2021-01-01T13:40:17Z</time>
      </trkpt>
      <trkpt lat="48.38737" lon="7.29073">
        <ele>828.093</ele>
        <time>2021-01-01T13:40:29Z</time>
      </trkpt>
      <trkpt lat="48.38746" lon="7.29093">
        <ele>824.317</ele>
        <time>2021-01-01T13:40:40Z</time>
      </trkpt>
      <trkpt lat="48.38754" lon="7.29104">
        <ele>821.892</ele>
        <time>2021-01-01T13:40:52Z</time>
      </trkpt>
      <trkpt lat="48.38764" lon="7.29119">
        <ele>818.299</ele>
        <time>2021-01-01T13:41:08Z</time>
      </trkpt>
      <trkpt lat="48.38772" lon="7.29142">
        <ele>812.818</ele>
        <time>2021-01-01T13:41:19Z</time>
      </trkpt>
      <trkpt lat="48.3878" lon="7.29155">
        <ele>809.968</ele>
        <time>2021-01-01T13:41:31Z</time>
      </trkpt>
      <trkpt lat="48.38792" lon="7.29163">
        <ele>808.352</ele>
        <time>2021-01-01T13:42:32Z</time>
      </trkpt>
      <trkpt lat="48.38806" lon="7.29174">
        <ele>806.216</ele>
        <time>2021-01-01T13:42:44Z</time>
      </trkpt>
      <trkpt lat="48.38819" lon="7.29182">
        <ele>804.623</ele>
        <time>2021-01-01T13:42:54Z</time>
      </trkpt>
      <trkpt lat="48.38831" lon="7.29197">
        <ele>801.306</ele>
        <time>2021-01-01T13:43:05Z</time>
      </trkpt>
      <trkpt lat="48.38847" lon="7.29205">
        <ele>799.46</ele>
        <time>2021-01-01T13:43:28Z</time>
      </trkpt>
      <trkpt lat="48.38858" lon="7.29214">
        <ele>797.097</ele>
        <time>2021-01-01T13:43:44Z</time>
      </trkpt>
      <trkpt lat="48.3885" lon="7.29232">
        <ele>792.925</ele>
        <time>2021-01-01T13:44:07Z</time>
      </trkpt>
      <trkpt lat="48.38841" lon="7.29251">
        <ele>788.384</ele>
        <time>2021-01-01T13:44:24Z</time>
      </trkpt>
      <trkpt lat="48.38832" lon="7.29265">
        <ele>785.823</ele>
        <time>2021-01-01T13:44:42Z</time>
      </trkpt>
      <trkpt lat="48.38826" lon="7.29286">
        <ele>781.518</ele>
        <time>2021-01-01T13:44:59Z</time>
      </trkpt>
      <trkpt lat="48.38819" lon="7.29309">
        <ele>777.496</ele>
        <time>2021-01-01T13:45:22Z</time>
      </trkpt>
      <trkpt lat="48.3881" lon="7.29321">
        <ele>776.477</ele>
        <time>2021-01-01T13:45:34Z</time>
      </trkpt>
      <trkpt lat="48.38805" lon="7.29335">
        <ele>774.814</ele>
        <time>2021-01-01T13:45:54Z</time>
      </trkpt>
      <trkpt lat="48.38792" lon="7.29347">
        <ele>774.004</ele>
        <time>2021-01-01T13:46:40Z</time>
      </trkpt>
      <trkpt lat="48.38784" lon="7.29364">
        <ele>772.455</ele>
        <time>2021-01-01T13:46:57Z</time>
      </trkpt>
      <trkpt lat="48.38777" lon="7.29378">
        <ele>771.268</ele>
        <time>2021-01-01T13:47:26Z</time>
      </trkpt>
      <trkpt lat="48.38765" lon="7.29393">
        <ele>770.571</ele>
        <time>2021-01-01T13:47:43Z</time>
      </trkpt>
      <trkpt lat="48.38758" lon="7.29405">
        <ele>769.889</ele>
        <time>2021-01-01T13:47:54Z</time>
      </trkpt>
      <trkpt lat="48.38752" lon="7.29429">
        <ele>767.992</ele>
        <time>2021-01-01T13:48:17Z</time>
      </trkpt>
      <trkpt lat="48.38742" lon="7.29439">
        <ele>767.666</ele>
        <time>2021-01-01T13:49:13Z</time>
      </trkpt>
      <trkpt lat="48.38731" lon="7.29451">
        <ele>767.239</ele>
        <time>2021-01-01T13:49:30Z</time>
      </trkpt>
      <trkpt lat="48.38722" lon="7.29468">
        <ele>766.293</ele>
        <time>2021-01-01T13:49:42Z</time>
      </trkpt>
      <trkpt lat="48.38713" lon="7.2949">
        <ele>765.828</ele>
        <time>2021-01-01T13:49:59Z</time>
      </trkpt>
      <trkpt lat="48.3871" lon="7.29512">
        <ele>765.197</ele>
        <time>2021-01-01T13:50:21Z</time>
      </trkpt>
      <trkpt lat="48.38706" lon="7.29531">
        <ele>765.162</ele>
        <time>2021-01-01T13:50:44Z</time>
      </trkpt>
      <trkpt lat="48.387" lon="7.29546">
        <ele>765.581</ele>
        <time>2021-01-01T13:50:55Z</time>
      </trkpt>
      <trkpt lat="48.38697" lon="7.29567">
        <ele>766.178</ele>
        <time>2021-01-01T13:51:06Z</time>
      </trkpt>
      <trkpt lat="48.38692" lon="7.29584">
        <ele>767.273</ele>
        <time>2021-01-01T13:51:18Z</time>
      </trkpt>
      <trkpt lat="48.3869" lon="7.29608">
        <ele>767.465</ele>
        <time>2021-01-01T13:51:30Z</time>
      </trkpt>
      <trkpt lat="48.38687" lon="7.29631">
        <ele>767.948</ele>
        <time>2021-01-01T13:51:52Z</time>
      </trkpt>
      <trkpt lat="48.38686" lon="7.29654">
        <ele>768.829</ele>
        <time>2021-01-01T13:52:09Z</time>
      </trkpt>
      <trkpt lat="48.38687" lon="7.29682">
        <ele>769.63</ele>
        <time>2021-01-01T13:52:25Z</time>
      </trkpt>
      <trkpt lat="48.3869" lon="7.29706">
        <ele>769.732</ele>
        <time>2021-01-01T13:52:48Z</time>
      </trkpt>
      <trkpt lat="48.38691" lon="7.29729">
        <ele>769.772</ele>
        <time>2021-01-01T13:53:11Z</time>
      </trkpt>
      <trkpt lat="48.38695" lon="7.29748">
        <ele>769.811</ele>
        <time>2021-01-01T13:53:23Z</time>
      </trkpt>
      <trkpt lat="48.38697" lon="7.2977">
        <ele>769.605</ele>
        <time>2021-01-01T13:53:40Z</time>
      </trkpt>
      <trkpt lat="48.38702" lon="7.2979">
        <ele>769.152</ele>
        <time>2021-01-01T13:54:08Z</time>
      </trkpt>
      <trkpt lat="48.38708" lon="7.29815">
        <ele>768.63</ele>
        <time>2021-01-01T13:54:24Z</time>
      </trkpt>
      <trkpt lat="48.38713" lon="7.29836">
        <ele>767.77</ele>
        <time>2021-01-01T13:54:36Z</time>
      </trkpt>
      <trkpt lat="48.38718" lon="7.29856">
        <ele>767.369</ele>
        <time>2021-01-01T13:54:52Z</time>
      </trkpt>
      <trkpt lat="48.3872" lon="7.29878">
        <ele>767.352</ele>
        <time>2021-01-01T13:55:03Z</time>
      </trkpt>
      <trkpt lat="48.38723" lon="7.29898">
        <ele>767.182</ele>
        <time>2021-01-01T13:55:14Z</time>
      </trkpt>
      <trkpt lat="48.38727" lon="7.29917">
        <ele>767.003</ele>
        <time>2021-01-01T13:55:26Z</time>
      </trkpt>
      <trkpt lat="48.38735" lon="7.29933">
        <ele>765.715</ele>
        <time>2021-01-01T13:55:42Z</time>
      </trkpt>
      <trkpt lat="48.38744" lon="7.29947">
        <ele>764.943</ele>
        <time>2021-01-01T13:55:53Z</time>
      </trkpt>
      <trkpt lat="48.38752" lon="7.2996">
        <ele>764.186</ele>
        <time>2021-01-01T13:56:05Z</time>
      </trkpt>
      <trkpt lat="48.38763" lon="7.29979">
        <ele>763.013</ele>
        <time>2021-01-01T13:56:17Z</time>
      </trkpt>
      <trkpt lat="48.38771" lon="7.29998">
        <ele>762.883</ele>
        <time>2021-01-01T13:56:29Z</time>
      </trkpt>
      <trkpt lat="48.38775" lon="7.30016">
        <ele>762.927</ele>
        <time>2021-01-01T13:56:39Z</time>
      </trkpt>
      <trkpt lat="48.38779" lon="7.30037">
        <ele>762.717</ele>
        <time>2021-01-01T13:56:51Z</time>
      </trkpt>
      <trkpt lat="48.38785" lon="7.3006">
        <ele>761.807</ele>
        <time>2021-01-01T13:57:01Z</time>
      </trkpt>
      <trkpt lat="48.38783" lon="7.30093">
        <ele>762.463</ele>
        <time>2021-01-01T13:57:19Z</time>
      </trkpt>
      <trkpt lat="48.38783" lon="7.30123">
        <ele>762.376</ele>
        <time>2021-01-01T13:57:31Z</time>
      </trkpt>
      <trkpt lat="48.38779" lon="7.30152">
        <ele>760.411</ele>
        <time>2021-01-01T13:57:53Z</time>
      </trkpt>
      <trkpt lat="48.38769" lon="7.30171">
        <ele>759.578</ele>
        <time>2021-01-01T13:58:10Z</time>
      </trkpt>
      <trkpt lat="48.38767" lon="7.30192">
        <ele>757.731</ele>
        <time>2021-01-01T13:58:26Z</time>
      </trkpt>
      <trkpt lat="48.38764" lon="7.30212">
        <ele>756.688</ele>
        <time>2021-01-01T13:58:44Z</time>
      </trkpt>
      <trkpt lat="48.38765" lon="7.30241">
        <ele>755.104</ele>
        <time>2021-01-01T13:59:07Z</time>
      </trkpt>
      <trkpt lat="48.38771" lon="7.30269">
        <ele>753.913</ele>
        <time>2021-01-01T13:59:23Z</time>
      </trkpt>
      <trkpt lat="48.38777" lon="7.30287">
        <ele>753.126</ele>
        <time>2021-01-01T13:59:39Z</time>
      </trkpt>
      <trkpt lat="48.38781" lon="7.30308">
        <ele>752.602</ele>
        <time>2021-01-01T13:59:56Z</time>
      </trkpt>
      <trkpt lat="48.38784" lon="7.30332">
        <ele>752.166</ele>
        <time>2021-01-01T14:00:13Z</time>
      </trkpt>
      <trkpt lat="48.38786" lon="7.30364">
        <ele>751.089</ele>
        <time>2021-01-01T14:00:31Z</time>
      </trkpt>
      <trkpt lat="48.38784" lon="7.30393">
        <ele>750.587</ele>
        <time>2021-01-01T14:00:48Z</time>
      </trkpt>
      <trkpt lat="48.3878" lon="7.30413">
        <ele>750.856</ele>
        <time>2021-01-01T14:00:59Z</time>
      </trkpt>
      <trkpt lat="48.38783" lon="7.30438">
        <ele>750.597</ele>
        <time>2021-01-01T14:01:15Z</time>
      </trkpt>
      <trkpt lat="48.38793" lon="7.30455">
        <ele>750.5</ele>
        <time>2021-01-01T14:01:26Z</time>
      </trkpt>
      <trkpt lat="48.38803" lon="7.30476">
        <ele>751.213</ele>
        <time>2021-01-01T14:01:37Z</time>
      </trkpt>
      <trkpt lat="48.38816" lon="7.30486">
        <ele>751.291</ele>
        <time>2021-01-01T14:01:49Z</time>
      </trkpt>
      <trkpt lat="48.3883" lon="7.30492">
        <ele>751.464</ele>
        <time>2021-01-01T14:02:01Z</time>
      </trkpt>
      <trkpt lat="48.38846" lon="7.30502">
        <ele>752.19</ele>
        <time>2021-01-01T14:02:12Z</time>
      </trkpt>
      <trkpt lat="48.38861" lon="7.30506">
        <ele>752.648</ele>
        <time>2021-01-01T14:02:24Z</time>
      </trkpt>
      <trkpt lat="48.38877" lon="7.3051">
        <ele>753.079</ele>
        <time>2021-01-01T14:02:40Z</time>
      </trkpt>
      <trkpt lat="48.38897" lon="7.30511">
        <ele>753.327</ele>
        <time>2021-01-01T14:02:58Z</time>
      </trkpt>
      <trkpt lat="48.38911" lon="7.30505">
        <ele>752.741</ele>
        <time>2021-01-01T14:03:14Z</time>
      </trkpt>
      <trkpt lat="48.38923" lon="7.30488">
        <ele>750.899</ele>
        <time>2021-01-01T14:03:31Z</time>
      </trkpt>
      <trkpt lat="48.38943" lon="7.30488">
        <ele>751.695</ele>
        <time>2021-01-01T14:03:43Z</time>
      </trkpt>
      <trkpt lat="48.38965" lon="7.30449">
        <ele>748.845</ele>
        <time>2021-01-01T14:04:22Z</time>
      </trkpt>
      <trkpt lat="48.38979" lon="7.30451">
        <ele>748.993</ele>
        <time>2021-01-01T14:04:28Z</time>
      </trkpt>
      <trkpt lat="48.38998" lon="7.30461">
        <ele>748.339</ele>
        <time>2021-01-01T14:04:40Z</time>
      </trkpt>
      <trkpt lat="48.39012" lon="7.30468">
        <ele>747.775</ele>
        <time>2021-01-01T14:04:51Z</time>
      </trkpt>
      <trkpt lat="48.3902" lon="7.30479">
        <ele>748.261</ele>
        <time>2021-01-01T14:05:02Z</time>
      </trkpt>
      <trkpt lat="48.39027" lon="7.30496">
        <ele>749.552</ele>
        <time>2021-01-01T14:05:13Z</time>
      </trkpt>
      <trkpt lat="48.39032" lon="7.30517">
        <ele>751.51</ele>
        <time>2021-01-01T14:05:40Z</time>
      </trkpt>
      <trkpt lat="48.39041" lon="7.30526">
        <ele>751.899</ele>
        <time>2021-01-01T14:05:51Z</time>
      </trkpt>
      <trkpt lat="48.39053" lon="7.30535">
        <ele>752.015</ele>
        <time>2021-01-01T14:06:02Z</time>
      </trkpt>
      <trkpt lat="48.39063" lon="7.30523">
        <ele>749.892</ele>
        <time>2021-01-01T14:06:19Z</time>
      </trkpt>
      <trkpt lat="48.3908" lon="7.30517">
        <ele>748.12</ele>
        <time>2021-01-01T14:06:36Z</time>
      </trkpt>
      <trkpt lat="48.39102" lon="7.30515">
        <ele>746.216</ele>
        <time>2021-01-01T14:06:59Z</time>
      </trkpt>
      <trkpt lat="48.39121" lon="7.30513">
        <ele>744.392</ele>
        <time>2021-01-01T14:07:16Z</time>
      </trkpt>
      <trkpt lat="48.39136" lon="7.30518">
        <ele>742.982</ele>
        <time>2021-01-01T14:07:28Z</time>
      </trkpt>
      <trkpt lat="48.39151" lon="7.30525">
        <ele>741.989</ele>
        <time>2021-01-01T14:07:40Z</time>
      </trkpt>
      <trkpt lat="48.39164" lon="7.30537">
        <ele>741.56</ele>
        <time>2021-01-01T14:07:51Z</time>
      </trkpt>
      <trkpt lat="48.39183" lon="7.30558">
        <ele>740.469</ele>
        <time>2021-01-01T14:08:13Z</time>
      </trkpt>
      <trkpt lat="48.39193" lon="7.30577">
        <ele>740.742</ele>
        <time>2021-01-01T14:08:29Z</time>
      </trkpt>
      <trkpt lat="48.3921" lon="7.30588">
        <ele>739.474</ele>
        <time>2021-01-01T14:08:44Z</time>
      </trkpt>
      <trkpt lat="48.39222" lon="7.30602">
        <ele>738.642</ele>
        <time>2021-01-01T14:09:00Z</time>
      </trkpt>
      <trkpt lat="48.39228" lon="7.30619">
        <ele>738.72</ele>
        <time>2021-01-01T14:09:15Z</time>
      </trkpt>
      <trkpt lat="48.39233" lon="7.30643">
        <ele>738.906</ele>
        <time>2021-01-01T14:09:31Z</time>
      </trkpt>
      <trkpt lat="48.39233" lon="7.30669">
        <ele>739.427</ele>
        <time>2021-01-01T14:09:52Z</time>
      </trkpt>
      <trkpt lat="48.39241" lon="7.30694">
        <ele>738.974</ele>
        <time>2021-01-01T14:10:08Z</time>
      </trkpt>
      <trkpt lat="48.3925" lon="7.30718">
        <ele>737.947</ele>
        <time>2021-01-01T14:10:23Z</time>
      </trkpt>
      <trkpt lat="48.3926" lon="7.30743">
        <ele>737.353</ele>
        <time>2021-01-01T14:10:40Z</time>
      </trkpt>
      <trkpt lat="48.39271" lon="7.30777">
        <ele>735.931</ele>
        <time>2021-01-01T14:10:56Z</time>
      </trkpt>
      <trkpt lat="48.39284" lon="7.30798">
        <ele>734.894</ele>
        <time>2021-01-01T14:11:11Z</time>
      </trkpt>
      <trkpt lat="48.39296" lon="7.30822">
        <ele>733.96</ele>
        <time>2021-01-01T14:11:27Z</time>
      </trkpt>
      <trkpt lat="48.39309" lon="7.30852">
        <ele>732.995</ele>
        <time>2021-01-01T14:11:43Z</time>
      </trkpt>
      <trkpt lat="48.39321" lon="7.30873">
        <ele>732.03</ele>
        <time>2021-01-01T14:11:58Z</time>
      </trkpt>
      <trkpt lat="48.39334" lon="7.30889">
        <ele>730.893</ele>
        <time>2021-01-01T14:12:13Z</time>
      </trkpt>
      <trkpt lat="48.39347" lon="7.30905">
        <ele>730.932</ele>
        <time>2021-01-01T14:12:29Z</time>
      </trkpt>
      <trkpt lat="48.39355" lon="7.30916">
        <ele>731.025</ele>
        <time>2021-01-01T14:12:45Z</time>
      </trkpt>
      <trkpt lat="48.39374" lon="7.30921">
        <ele>729.672</ele>
        <time>2021-01-01T14:13:06Z</time>
      </trkpt>
      <trkpt lat="48.394" lon="7.3092">
        <ele>728.109</ele>
        <time>2021-01-01T14:13:38Z</time>
      </trkpt>
      <trkpt lat="48.39426" lon="7.30922">
        <ele>727.674</ele>
        <time>2021-01-01T14:14:10Z</time>
      </trkpt>
      <trkpt lat="48.39448" lon="7.30926">
        <ele>727.604</ele>
        <time>2021-01-01T14:14:29Z</time>
      </trkpt>
      <trkpt lat="48.39466" lon="7.30936">
        <ele>728.719</ele>
        <time>2021-01-01T14:14:45Z</time>
      </trkpt>
      <trkpt lat="48.39482" lon="7.30938">
        <ele>728.85</ele>
        <time>2021-01-01T14:15:01Z</time>
      </trkpt>
      <trkpt lat="48.39497" lon="7.30934">
        <ele>727.787</ele>
        <time>2021-01-01T14:15:17Z</time>
      </trkpt>
      <trkpt lat="48.39516" lon="7.30934">
        <ele>726.666</ele>
        <time>2021-01-01T14:15:33Z</time>
      </trkpt>
      <trkpt lat="48.39541" lon="7.30924">
        <ele>722.397</ele>
        <time>2021-01-01T14:15:59Z</time>
      </trkpt>
      <trkpt lat="48.39556" lon="7.30929">
        <ele>722.154</ele>
        <time>2021-01-01T14:16:14Z</time>
      </trkpt>
      <trkpt lat="48.39576" lon="7.3094">
        <ele>722.652</ele>
        <time>2021-01-01T14:16:30Z</time>
      </trkpt>
      <trkpt lat="48.39594" lon="7.30947">
        <ele>721.575</ele>
        <time>2021-01-01T14:16:46Z</time>
      </trkpt>
      <trkpt lat="48.39615" lon="7.30961">
        <ele>721.486</ele>
        <time>2021-01-01T14:17:02Z</time>
      </trkpt>
      <trkpt lat="48.39632" lon="7.30973">
        <ele>721.334</ele>
        <time>2021-01-01T14:17:17Z</time>
      </trkpt>
      <trkpt lat="48.3965" lon="7.30988">
        <ele>720.75</ele>
        <time>2021-01-01T14:17:32Z</time>
      </trkpt>
      <trkpt lat="48.39665" lon="7.31003">
        <ele>720.109</ele>
        <time>2021-01-01T14:17:48Z</time>
      </trkpt>
      <trkpt lat="48.3968" lon="7.31022">
        <ele>719.879</ele>
        <time>2021-01-01T14:18:04Z</time>
      </trkpt>
      <trkpt lat="48.39694" lon="7.31037">
        <ele>719.272</ele>
        <time>2021-01-01T14:18:19Z</time>
      </trkpt>
      <trkpt lat="48.3971" lon="7.31052">
        <ele>717.261</ele>
        <time>2021-01-01T14:18:35Z</time>
      </trkpt>
      <trkpt lat="48.39727" lon="7.31064">
        <ele>713.742</ele>
        <time>2021-01-01T14:18:51Z</time>
      </trkpt>
      <trkpt lat="48.39741" lon="7.31079">
        <ele>711.469</ele>
        <time>2021-01-01T14:19:06Z</time>
      </trkpt>
      <trkpt lat="48.39755" lon="7.31094">
        <ele>709.357</ele>
        <time>2021-01-01T14:19:22Z</time>
      </trkpt>
      <trkpt lat="48.3977" lon="7.31108">
        <ele>706.795</ele>
        <time>2021-01-01T14:19:37Z</time>
      </trkpt>
      <trkpt lat="48.39787" lon="7.31125">
        <ele>703.497</ele>
        <time>2021-01-01T14:19:53Z</time>
      </trkpt>
      <trkpt lat="48.39799" lon="7.31136">
        <ele>700.94</ele>
        <time>2021-01-01T14:20:08Z</time>
      </trkpt>
      <trkpt lat="48.39814" lon="7.31155">
        <ele>698.405</ele>
        <time>2021-01-01T14:20:23Z</time>
      </trkpt>
      <trkpt lat="48.39826" lon="7.31174">
        <ele>697.246</ele>
        <time>2021-01-01T14:20:39Z</time>
      </trkpt>
      <trkpt lat="48.39836" lon="7.31189">
        <ele>696.268</ele>
        <time>2021-01-01T14:20:54Z</time>
      </trkpt>
      <trkpt lat="48.3985" lon="7.31206">
        <ele>693.78</ele>
        <time>2021-01-01T14:21:10Z</time>
      </trkpt>
      <trkpt lat="48.39861" lon="7.31224">
        <ele>692.17</ele>
        <time>2021-01-01T14:21:25Z</time>
      </trkpt>
      <trkpt lat="48.3987" lon="7.31244">
        <ele>690.677</ele>
        <time>2021-01-01T14:21:41Z</time>
      </trkpt>
      <trkpt lat="48.39876" lon="7.31262">
        <ele>689.796</ele>
        <time>2021-01-01T14:21:57Z</time>
      </trkpt>
      <trkpt lat="48.39882" lon="7.31287">
        <ele>689.418</ele>
        <time>2021-01-01T14:22:26Z</time>
      </trkpt>
      <trkpt lat="48.39895" lon="7.31292">
        <ele>685.843</ele>
        <time>2021-01-01T14:22:42Z</time>
      </trkpt>
      <trkpt lat="48.3991" lon="7.31288">
        <ele>682.181</ele>
        <time>2021-01-01T14:22:57Z</time>
      </trkpt>
      <trkpt lat="48.39935" lon="7.31286">
        <ele>675.47</ele>
        <time>2021-01-01T14:23:31Z</time>
      </trkpt>
      <trkpt lat="48.39949" lon="7.31294">
        <ele>671.963</ele>
        <time>2021-01-01T14:23:47Z</time>
      </trkpt>
      <trkpt lat="48.39961" lon="7.31305">
        <ele>668.848</ele>
        <time>2021-01-01T14:24:04Z</time>
      </trkpt>
      <trkpt lat="48.39975" lon="7.31312">
        <ele>665.305</ele>
        <time>2021-01-01T14:24:19Z</time>
      </trkpt>
      <trkpt lat="48.39991" lon="7.31304">
        <ele>661.871</ele>
        <time>2021-01-01T14:24:35Z</time>
      </trkpt>
      <trkpt lat="48.40009" lon="7.31294">
        <ele>657.755</ele>
        <time>2021-01-01T14:24:51Z</time>
      </trkpt>
      <trkpt lat="48.40024" lon="7.31275">
        <ele>654.829</ele>
        <time>2021-01-01T14:25:06Z</time>
      </trkpt>
      <trkpt lat="48.40029" lon="7.31253">
        <ele>654.68</ele>
        <time>2021-01-01T14:25:21Z</time>
      </trkpt>
      <trkpt lat="48.40023" lon="7.31229">
        <ele>654.371</ele>
        <time>2021-01-01T14:25:37Z</time>
      </trkpt>
      <trkpt lat="48.40015" lon="7.31214">
        <ele>654.723</ele>
        <time>2021-01-01T14:25:52Z</time>
      </trkpt>
      <trkpt lat="48.4001" lon="7.3117">
        <ele>649.781</ele>
        <time>2021-01-01T14:26:44Z</time>
      </trkpt>
      <trkpt lat="48.4" lon="7.3115">
        <ele>648.685</ele>
        <time>2021-01-01T14:26:59Z</time>
      </trkpt>
      <trkpt lat="48.39987" lon="7.31125">
        <ele>647.691</ele>
        <time>2021-01-01T14:27:15Z</time>
      </trkpt>
      <trkpt lat="48.39976" lon="7.31104">
        <ele>646.755</ele>
        <time>2021-01-01T14:27:31Z</time>
      </trkpt>
      <trkpt lat="48.39965" lon="7.31083">
        <ele>646.48</ele>
        <time>2021-01-01T14:27:46Z</time>
      </trkpt>
      <trkpt lat="48.39955" lon="7.31062">
        <ele>645.861</ele>
        <time>2021-01-01T14:28:03Z</time>
      </trkpt>
      <trkpt lat="48.39944" lon="7.31037">
        <ele>644.417</ele>
        <time>2021-01-01T14:28:19Z</time>
      </trkpt>
      <trkpt lat="48.39933" lon="7.31018">
        <ele>644.387</ele>
        <time>2021-01-01T14:28:35Z</time>
      </trkpt>
      <trkpt lat="48.39925" lon="7.31004">
        <ele>644.42</ele>
        <time>2021-01-01T14:28:51Z</time>
      </trkpt>
      <trkpt lat="48.39923" lon="7.30984">
        <ele>643.115</ele>
        <time>2021-01-01T14:29:06Z</time>
      </trkpt>
      <trkpt lat="48.39927" lon="7.30947">
        <ele>640.35</ele>
        <time>2021-01-01T14:29:22Z</time>
      </trkpt>
      <trkpt lat="48.39936" lon="7.3092">
        <ele>638.465</ele>
        <time>2021-01-01T14:29:37Z</time>
      </trkpt>
      <trkpt lat="48.39947" lon="7.30896">
        <ele>638.716</ele>
        <time>2021-01-01T14:29:53Z</time>
      </trkpt>
      <trkpt lat="48.39955" lon="7.30879">
        <ele>639.361</ele>
        <time>2021-01-01T14:30:09Z</time>
      </trkpt>
      <trkpt lat="48.39971" lon="7.30859">
        <ele>640.092</ele>
        <time>2021-01-01T14:30:25Z</time>
      </trkpt>
      <trkpt lat="48.39983" lon="7.30839">
        <ele>640.396</ele>
        <time>2021-01-01T14:30:40Z</time>
      </trkpt>
      <trkpt lat="48.39987" lon="7.30817">
        <ele>641.385</ele>
        <time>2021-01-01T14:30:55Z</time>
      </trkpt>
      <trkpt lat="48.3999" lon="7.30794">
        <ele>642.559</ele>
        <time>2021-01-01T14:31:11Z</time>
      </trkpt>
      <trkpt lat="48.39993" lon="7.30764">
        <ele>643.779</ele>
        <time>2021-01-01T14:31:27Z</time>
      </trkpt>
      <trkpt lat="48.39997" lon="7.3074">
        <ele>644.817</ele>
        <time>2021-01-01T14:31:43Z</time>
      </trkpt>
      <trkpt lat="48.39995" lon="7.30711">
        <ele>646.46</ele>
        <time>2021-01-01T14:31:58Z</time>
      </trkpt>
      <trkpt lat="48.39996" lon="7.30668">
        <ele>649.016</ele>
        <time>2021-01-01T14:32:29Z</time>
      </trkpt>
      <trkpt lat="48.40011" lon="7.30672">
        <ele>648.698</ele>
        <time>2021-01-01T14:32:45Z</time>
      </trkpt>
      <trkpt lat="48.40023" lon="7.30682">
        <ele>648.333</ele>
        <time>2021-01-01T14:33:01Z</time>
      </trkpt>
      <trkpt lat="48.4003" lon="7.30693">
        <ele>648.147</ele>
        <time>2021-01-01T14:37:43Z</time>
      </trkpt>
    </trkseg>
  </trk>
</gpx>